Current Conditions - Area Ports

 

CYWH - Victoria Harbour, British Columbia, Canada
Distance from station: WSW 10km
Updated: 09/19/2017 9:00pm
NOT Current
Mostly cloudy
Mostly cloudy
 Wind from W
Wind: W 9 km/h
Temperature: 13°C
Dew Point: 9°C
Humidity: 77%
Barometer: 1006.4 hPa
Clouds: Mostly cloudy
Visibility: 24 km
Cloud details: Few Clouds 762 m
Mostly cloudy 1676 m
Mostly cloudy 3048 m
2017/09/20 04:00 CYWH 200400Z 27005KT 260V320 15SM FEW025 BKN055 BKN100 13/09 A2972 RMK SC2SC4AC1 LAST STFD OBS/NEXT 201300 UTC SLP064
KFHR - Friday Harbor, Washington, USA
Distance from station: ENE 19km
Updated: 09/20/2017 5:33am
Overcast
Overcast
 Wind from calm
Wind: Calm
Temperature: 10°C
Dew Point: 10°C
Humidity: 100%
Barometer: 1004.4 hPa
Clouds: Overcast
Visibility: 16 km
Cloud details: Partly cloudy 244 m
Partly cloudy 1128 m
Overcast 1829 m
2017/09/20 12:33 KFHR 201233Z AUTO 00000KT 10SM SCT008 SCT037 OVC060 10/10 A2966 RMK AO2 T01000100
 
KORS - Eastsound/Orcas, Washington, USA
Distance from station: NE 38km
Updated: 09/20/2017 5:35am
Light rain, Overcast
Light rain, Overcast
 Wind from calm
Wind: Calm
Temperature: 11°C
Dew Point: 10°C
Humidity: 94%
Barometer: 1004.1 hPa
Summary: Light rain
Clouds: Overcast
Visibility: 8 km
Cloud details: Overcast 488 m
2017/09/20 12:35 KORS 201235Z AUTO 00000KT 5SM -RA OVC016 11/10 A2965 RMK AO2
KNUW - Whidbey Is. Nas, Washington, USA
Distance from station: ESE 47km
Updated: 09/20/2017 4:56am
Mostly cloudy
Mostly cloudy
 Wind from calm
Wind: Calm
Temperature: 11°C
Dew Point: 7°C
Humidity: 77%
Barometer: 1005.1 hPa
Clouds: Mostly cloudy
Visibility: 16 km
Cloud details: Partly cloudy 762 m
Mostly cloudy 1311 m
Mostly cloudy 2134 m
2017/09/20 11:56 KNUW 201156Z 00000KT 10SM SCT025 BKN043 BKN070 11/07 A2968 RMK AO2 SLP050 T01060067 10128 20100 55008 $
 
CWEZ - Saturna Isl (map, British Columbia, Canada
Distance from station: NNE 40km
Updated: 09/20/2017 5:00am

 Wind from W
Wind: W 4 km/h
Temperature: 10°C
Dew Point: 9°C
Humidity: 94%
2017/09/20 12:00 CWEZ 201200Z AUTO 27002KT 10/09 RMK AO1 SLP036 T01040091 56007
CYCD - Nanaimo Airport, British Columbia, Canada
Distance from station: NW 80km
Updated: 09/19/2017 9:00pm
NOT Current
Light rain, Overcast
Light rain, Overcast
 Wind from varies
Wind: varies 4 km/h
Temperature: 11°C
Dew Point: 10°C
Humidity: 94%
Barometer: 1006.4 hPa
Summary: Light rain
Clouds: Overcast
Visibility: 13 km
Cloud details: Partly cloudy 152 m
Overcast 1524 m
2017/09/20 04:00 CYCD 200400Z VRB02KT 8SM -RA SCT005 OVC050 11/10 A2972 RMK SF3SC5 LAST OBS/NEXT 201300 UTC SLP065
 
CWVF - Sand Heads (ls), British Columbia, Canada
Distance from station: N 72km
Updated: 09/20/2017 5:30am

 Wind from ENE
Wind: ENE 7 km/h
Temperature: 11°C
2017/09/20 12:30 CWVF 201230Z AUTO 07004KT 11/ RMK AO1 T0111
CWQK - Race Rocks Autob, British Columbia, Canada
Distance from station: SW 26km
Updated: 09/20/2017 5:00am

 Wind from NNE
Wind: NNE 15 km/h
Temperature: 10°C
Wind Chill: 8°C
Dew Point: 8°C
Humidity: 88%
2017/09/20 12:00 CWQK 201200Z AUTO 02008KT 10/08 RMK AO1 SLP036 T01000083 55006
 
CWSP - Sheringham Autob, British Columbia, Canada
Distance from station: W 49km
Updated: 09/20/2017 5:00am

 Wind from calm
Wind: Calm
Temperature: 9°C
Dew Point: 8°C
Humidity: 94%
2017/09/20 12:00 CWSP 201200Z AUTO 00000KT 09/08 RMK AO1 SLP038 T00930083 55002